Bear Creek, Alabama
Current Conditions -  °F | °C
As of 8:56 PM on Friday 19 Dec 2014 (Local Time) from K1M4 Reporting Station
Light Rain Light Rain  
Wind Chill: 36°   Ceiling: Unl
Heat Index: 36°   Visibility: 6mi
Dew Point: 34°   Wind: 0mph
Humidity: 93%   Direction: NA
Pressure: 30.2"   Gusts: NA
Location:  34.27°N, 87.7°W
Report Text: K1M4 200256Z AUTO 00000KT 6SM -RA BR CLR 02/01 A3020 RMK AO2 50004 60003 T00220011 P0001 SLP236 $
Loading
Personal Weather Stations






























Interactive Weather Map New forecast layout! Learn more

10-Day Weather Forecast

Advertisements
Track Severe Weather on mobile